createdAt,value
2019-01-20T00:00:08.839Z,24.53
2019-01-20T00:02:37.432Z,23.50
2019-01-20T00:05:06.689Z,25.60
2019-01-20T00:07:35.285Z,23.80
2019-01-20T00:10:05.080Z,20.50
2019-01-20T00:12:33.763Z,20.10
2019-01-20T00:15:02.358Z,19.30
2019-01-20T00:17:30.934Z,17.13
2019-01-20T00:19:59.675Z,19.60
2019-01-20T00:22:28.350Z,16.83
2019-01-20T00:24:56.978Z,16.77
2019-01-20T00:27:25.729Z,14.97
2019-01-20T00:29:54.333Z,18.77
2019-01-20T00:32:22.926Z,18.40
2019-01-20T00:34:51.547Z,17.97
2019-01-20T00:37:20.138Z,17.33
2019-01-20T00:39:48.744Z,17.10
2019-01-20T00:42:17.364Z,16.60
2019-01-20T00:44:45.967Z,15.10
2019-01-20T00:47:14.552Z,15.10
2019-01-20T00:49:43.188Z,16.00
2019-01-20T00:52:11.783Z,15.43
2019-01-20T00:54:40.356Z,14.73
2019-01-20T00:57:08.954Z,15.70
2019-01-20T00:59:37.568Z,15.43
2019-01-20T01:02:06.163Z,15.73
2019-01-20T01:04:34.778Z,17.07
2019-01-20T01:07:03.472Z,15.67
2019-01-20T01:09:32.068Z,14.33
2019-01-20T01:12:00.692Z,18.30
2019-01-20T01:14:29.290Z,16.30
2019-01-20T01:16:57.884Z,17.67
2019-01-20T01:19:26.514Z,14.63
2019-01-20T01:21:55.130Z,16.07
2019-01-20T01:24:23.746Z,12.73
2019-01-20T01:26:52.372Z,15.57
2019-01-20T01:29:20.967Z,14.53
2019-01-20T01:31:49.633Z,14.37
2019-01-20T01:34:18.228Z,15.30
2019-01-20T01:36:46.806Z,15.63
2019-01-20T01:39:15.407Z,14.87
2019-01-20T01:41:44.005Z,12.80
2019-01-20T01:44:12.615Z,13.73
2019-01-20T01:46:41.205Z,13.67
2019-01-20T01:49:09.823Z,17.10
2019-01-20T01:51:38.416Z,13.30
2019-01-20T01:54:07.024Z,14.97
2019-01-20T01:56:35.642Z,15.50
2019-01-20T01:59:04.336Z,16.27
2019-01-20T02:01:32.951Z,16.53
2019-01-20T02:04:01.588Z,15.87
2019-01-20T02:06:30.171Z,16.13
2019-01-20T02:08:58.818Z,14.50
2019-01-20T02:11:27.454Z,15.67
2019-01-20T02:13:56.045Z,14.47
2019-01-20T02:16:24.635Z,13.40
2019-01-20T02:18:53.266Z,15.80
2019-01-20T02:21:21.865Z,14.50
2019-01-20T02:23:50.455Z,16.77
2019-01-20T02:26:19.092Z,14.23
2019-01-20T02:28:47.692Z,15.20
2019-01-20T02:31:16.265Z,13.37
2019-01-20T02:33:44.894Z,13.73
2019-01-20T02:36:13.488Z,13.83
2019-01-20T02:38:42.082Z,13.90
2019-01-20T02:41:10.695Z,11.43
2019-01-20T02:43:39.300Z,12.67
2019-01-20T02:46:07.881Z,12.50
2019-01-20T02:48:36.500Z,12.87
2019-01-20T02:51:05.092Z,11.43
2019-01-20T02:53:33.753Z,12.80
2019-01-20T02:56:02.361Z,12.23
2019-01-20T02:58:30.963Z,12.87
2019-01-20T03:00:59.562Z,13.27
2019-01-20T03:03:28.169Z,11.40
2019-01-20T03:05:56.757Z,12.07
2019-01-20T03:08:25.560Z,13.53
2019-01-20T03:10:54.843Z,12.37
2019-01-20T03:13:23.438Z,11.30
2019-01-20T03:15:52.409Z,10.67
2019-01-20T03:18:21.053Z,11.03
2019-01-20T03:20:49.667Z,10.67
2019-01-20T03:23:18.273Z,13.93
2019-01-20T03:25:46.866Z,10.60
2019-01-20T03:28:15.457Z,12.57
2019-01-20T03:30:44.048Z,11.40
2019-01-20T03:33:12.652Z,13.83
2019-01-20T03:35:41.231Z,13.20
2019-01-20T03:38:09.861Z,12.93
2019-01-20T03:40:38.455Z,12.30
2019-01-20T03:43:07.062Z,12.77
2019-01-20T03:45:35.678Z,12.20
2019-01-20T03:48:04.262Z,12.40
2019-01-20T03:50:32.886Z,12.17
2019-01-20T03:53:01.501Z,12.17
2019-01-20T03:55:30.090Z,12.63
2019-01-20T03:57:58.683Z,11.10
2019-01-20T04:00:27.298Z,11.57
2019-01-20T04:03:05.039Z,12.40
2019-01-20T04:05:33.666Z,12.20
2019-01-20T04:08:02.276Z,12.40
2019-01-20T04:10:30.927Z,10.70
2019-01-20T04:12:59.727Z,12.77
2019-01-20T04:15:28.324Z,11.97
2019-01-20T04:17:56.931Z,10.77
2019-01-20T04:20:25.604Z,10.30
2019-01-20T04:22:54.261Z,10.00
2019-01-20T04:25:22.833Z,9.73
2019-01-20T04:27:51.443Z,11.30
2019-01-20T04:30:20.306Z,9.43
2019-01-20T04:32:49.166Z,10.37
2019-01-20T04:35:17.794Z,9.67
2019-01-20T04:37:46.368Z,9.63
2019-01-20T04:40:16.182Z,9.13
2019-01-20T04:42:44.814Z,9.43
2019-01-20T04:45:13.549Z,10.27
2019-01-20T04:47:42.139Z,9.20
2019-01-20T04:50:12.230Z,9.93
2019-01-20T04:52:40.908Z,11.13
2019-01-20T04:55:10.264Z,9.93
2019-01-20T04:57:39.072Z,8.73
2019-01-20T05:00:09.588Z,9.43
2019-01-20T05:02:38.182Z,10.80
2019-01-20T05:05:06.788Z,10.30
2019-01-20T05:07:35.376Z,10.90
2019-01-20T05:10:04.656Z,10.43
2019-01-20T05:12:37.761Z,10.63
2019-01-20T05:15:03.776Z,10.67
2019-01-20T05:17:32.360Z,8.93
2019-01-20T05:20:00.982Z,8.33
2019-01-20T05:22:29.572Z,8.23
2019-01-20T05:24:58.138Z,10.83
2019-01-20T05:27:26.764Z,9.20
2019-01-20T05:29:55.332Z,8.07
2019-01-20T05:32:23.920Z,8.00
2019-01-20T05:34:52.544Z,8.43
2019-01-20T05:37:21.118Z,9.10
2019-01-20T05:39:49.704Z,8.73
2019-01-20T05:42:18.318Z,10.03
2019-01-20T05:44:46.894Z,8.17
2019-01-20T05:47:15.494Z,8.73
2019-01-20T05:49:44.100Z,8.20
2019-01-20T05:52:12.676Z,7.93
2019-01-20T05:54:41.265Z,8.70
2019-01-20T05:57:09.886Z,8.07
2019-01-20T05:59:38.458Z,8.00
2019-01-20T06:02:07.046Z,9.20
2019-01-20T06:04:35.667Z,8.47
2019-01-20T06:07:04.268Z,7.57
2019-01-20T06:09:32.840Z,9.30
2019-01-20T06:12:01.464Z,8.43
2019-01-20T06:14:30.032Z,10.30
2019-01-20T06:16:58.632Z,7.77
2019-01-20T06:19:27.256Z,7.13
2019-01-20T06:21:55.824Z,7.10
2019-01-20T06:24:24.473Z,8.00
2019-01-20T06:26:53.098Z,9.57
2019-01-20T06:29:21.686Z,7.23
2019-01-20T06:31:50.278Z,8.20
2019-01-20T06:34:18.894Z,8.00
2019-01-20T06:36:47.470Z,6.77
2019-01-20T06:39:16.059Z,7.60
2019-01-20T06:41:44.672Z,8.30
2019-01-20T06:44:13.254Z,8.53
2019-01-20T06:46:41.904Z,7.33
2019-01-20T06:49:10.504Z,8.20
2019-01-20T06:51:39.103Z,7.40
2019-01-20T06:54:07.688Z,6.63
2019-01-20T06:56:36.426Z,7.93
2019-01-20T06:59:04.997Z,7.37
2019-01-20T07:01:33.588Z,7.10
2019-01-20T07:04:02.192Z,7.90
2019-01-20T07:06:30.880Z,7.57
2019-01-20T07:08:59.461Z,6.80
2019-01-20T07:11:28.061Z,5.70
2019-01-20T07:13:56.647Z,6.57
2019-01-20T07:16:25.241Z,5.90
2019-01-20T07:18:53.897Z,6.47
2019-01-20T07:21:22.490Z,5.93
2019-01-20T07:23:51.069Z,5.70
2019-01-20T07:26:19.675Z,5.60
2019-01-20T07:28:48.287Z,7.40
2019-01-20T07:31:16.865Z,5.13
2019-01-20T07:33:45.492Z,6.17
2019-01-20T07:36:14.074Z,6.70
2019-01-20T07:38:42.649Z,6.40
2019-01-20T07:41:11.262Z,5.13
2019-01-20T07:43:39.920Z,6.23
2019-01-20T07:46:08.492Z,5.10
2019-01-20T07:48:37.101Z,5.20
2019-01-20T07:51:05.851Z,5.90
2019-01-20T07:53:34.451Z,5.53
2019-01-20T07:56:03.049Z,5.83
2019-01-20T07:58:31.643Z,5.00
2019-01-20T08:01:00.235Z,4.93
2019-01-20T08:03:28.859Z,5.87
2019-01-20T08:05:57.455Z,5.47
2019-01-20T08:08:26.097Z,5.57
2019-01-20T08:10:54.691Z,5.90
2019-01-20T08:13:24.363Z,5.63
2019-01-20T08:15:53.516Z,4.10
2019-01-20T08:18:22.119Z,5.03
2019-01-20T08:20:50.708Z,4.83
2019-01-20T08:23:19.287Z,5.10
2019-01-20T08:25:47.987Z,5.90
2019-01-20T08:28:16.581Z,4.77
2019-01-20T08:30:45.193Z,5.33
2019-01-20T08:33:13.845Z,4.80
2019-01-20T08:35:42.423Z,5.90
2019-01-20T08:38:11.019Z,3.93
2019-01-20T08:40:39.632Z,4.07
2019-01-20T08:43:08.237Z,5.00
2019-01-20T08:46:04.996Z,5.00
2019-01-20T08:48:33.600Z,5.17
2019-01-20T08:51:02.277Z,5.17
2019-01-20T08:53:30.897Z,5.30
2019-01-20T08:55:59.491Z,4.20
2019-01-20T08:58:28.074Z,6.40
2019-01-20T09:00:56.683Z,4.87
2019-01-20T09:03:25.266Z,5.17
2019-01-20T09:05:53.860Z,5.20
2019-01-20T09:08:22.524Z,5.03
2019-01-20T09:10:51.109Z,6.80
2019-01-20T09:13:20.669Z,5.83
2019-01-20T09:15:49.380Z,6.53
2019-01-20T09:18:17.975Z,7.20
2019-01-20T09:20:46.568Z,7.80
2019-01-20T09:23:15.204Z,7.07
2019-01-20T09:25:43.780Z,7.77
2019-01-20T09:28:12.370Z,5.77
2019-01-20T09:30:40.990Z,7.00
2019-01-20T09:33:09.572Z,7.40
2019-01-20T09:35:38.252Z,6.93
2019-01-20T09:38:06.856Z,6.67
2019-01-20T09:40:35.444Z,5.27
2019-01-20T09:43:04.697Z,7.23
2019-01-20T09:45:34.017Z,8.63
2019-01-20T09:48:02.634Z,9.60
2019-01-20T09:50:31.217Z,8.50
2019-01-20T09:52:59.830Z,8.77
2019-01-20T09:55:28.431Z,8.10
2019-01-20T09:57:57.038Z,6.70
2019-01-20T10:00:26.610Z,9.17
2019-01-20T10:02:55.285Z,7.87
2019-01-20T10:05:23.900Z,7.23
2019-01-20T10:07:52.547Z,7.47
2019-01-20T10:10:21.184Z,6.43
2019-01-20T10:12:49.773Z,7.90
2019-01-20T10:15:18.694Z,8.50
2019-01-20T10:17:47.266Z,9.63
2019-01-20T10:20:25.940Z,6.63
2019-01-20T10:22:54.513Z,5.73
2019-01-20T10:25:23.096Z,6.00
2019-01-20T10:27:51.710Z,7.03
2019-01-20T10:30:24.464Z,8.77
2019-01-20T10:32:53.036Z,6.90
2019-01-20T10:35:24.860Z,6.60
2019-01-20T10:37:54.135Z,7.23
2019-01-20T10:40:22.708Z,5.30
2019-01-20T10:42:51.305Z,8.57
2019-01-20T10:45:19.884Z,7.00
2019-01-20T10:47:48.476Z,5.23
2019-01-20T10:50:17.223Z,5.90
2019-01-20T10:52:45.826Z,8.33
2019-01-20T10:55:14.396Z,5.33
2019-01-20T10:57:42.985Z,6.93
2019-01-20T11:00:13.575Z,5.27
2019-01-20T11:02:42.165Z,4.83
2019-01-20T11:05:11.011Z,4.70
2019-01-20T11:07:39.605Z,5.47
2019-01-20T11:10:08.399Z,6.50
2019-01-20T11:12:37.035Z,8.87
2019-01-20T11:15:06.000Z,5.27
2019-01-20T11:17:34.571Z,6.93
2019-01-20T11:20:03.310Z,4.63
2019-01-20T11:22:31.895Z,5.97
2019-01-20T11:25:00.481Z,5.37
2019-01-20T11:27:29.086Z,6.17
2019-01-20T11:29:57.719Z,5.13
2019-01-20T11:32:26.296Z,7.97
2019-01-20T11:34:54.911Z,7.17
2019-01-20T11:37:23.492Z,6.90
2019-01-20T11:39:52.083Z,5.90
2019-01-20T11:42:20.683Z,7.37
2019-01-20T11:44:49.264Z,5.17
2019-01-20T11:47:17.857Z,5.57
2019-01-20T11:49:46.471Z,8.17
2019-01-20T11:52:15.107Z,8.03
2019-01-20T11:54:43.713Z,9.20
2019-01-20T11:57:12.303Z,6.40
2019-01-20T11:59:40.894Z,10.93
2019-01-20T12:02:09.508Z,10.60
2019-01-20T12:04:38.090Z,7.90
2019-01-20T12:07:06.661Z,5.77
2019-01-20T12:09:35.273Z,8.70
2019-01-20T12:12:03.951Z,7.63
2019-01-20T12:14:32.581Z,10.50
2019-01-20T12:17:01.193Z,9.87
2019-01-20T12:19:29.774Z,8.87
2019-01-20T12:21:58.353Z,9.60
2019-01-20T12:24:26.996Z,12.07
2019-01-20T12:26:55.590Z,8.97
2019-01-20T12:29:25.644Z,8.53
2019-01-20T12:31:54.475Z,12.90
2019-01-20T12:34:23.375Z,9.87
2019-01-20T12:36:51.971Z,12.00
2019-01-20T12:39:20.571Z,9.77
2019-01-20T12:41:49.151Z,9.40
2019-01-20T12:44:17.738Z,10.40
2019-01-20T12:46:46.336Z,8.10
2019-01-20T12:49:14.919Z,8.53
2019-01-20T12:51:43.502Z,6.70
2019-01-20T12:54:12.099Z,9.33
2019-01-20T12:56:40.689Z,9.50
2019-01-20T12:59:09.275Z,8.00
2019-01-20T13:01:37.879Z,11.57
2019-01-20T13:04:06.443Z,9.20
2019-01-20T13:06:35.025Z,9.57
2019-01-20T13:09:05.279Z,9.93
2019-01-20T13:11:33.852Z,10.13
2019-01-20T13:14:02.426Z,10.83
2019-01-20T13:16:31.089Z,10.00
2019-01-20T13:18:59.690Z,11.10
2019-01-20T13:21:28.316Z,10.37
2019-01-20T13:23:56.895Z,11.53
2019-01-20T13:26:25.487Z,10.60
2019-01-20T13:28:54.111Z,8.60
2019-01-20T13:31:22.676Z,9.60
2019-01-20T13:33:51.260Z,10.33
2019-01-20T13:36:19.859Z,7.47
2019-01-20T13:38:48.448Z,10.53
2019-01-20T13:41:22.026Z,13.03
2019-01-20T13:43:50.636Z,9.40
2019-01-20T13:46:19.232Z,9.73
2019-01-20T13:48:47.838Z,9.20
2019-01-20T13:51:16.430Z,10.83
2019-01-20T13:53:45.036Z,10.17
2019-01-20T13:56:13.686Z,9.03
2019-01-20T13:58:42.268Z,10.87
2019-01-20T14:01:10.929Z,9.57
2019-01-20T14:03:39.536Z,10.63
2019-01-20T14:06:08.111Z,10.00
2019-01-20T14:08:43.952Z,10.83
2019-01-20T14:11:06.984Z,10.13
2019-01-20T14:13:35.571Z,12.60
2019-01-20T14:16:04.324Z,10.43
2019-01-20T14:18:33.044Z,10.07
2019-01-20T14:21:01.644Z,10.47
2019-01-20T14:23:30.224Z,12.70
2019-01-20T14:25:58.893Z,9.83
2019-01-20T14:28:27.544Z,13.47
2019-01-20T14:30:56.136Z,13.30
2019-01-20T14:33:24.749Z,13.63
2019-01-20T14:35:53.361Z,14.60
2019-01-20T14:38:21.942Z,11.93
2019-01-20T14:40:50.574Z,14.27
2019-01-20T14:43:19.168Z,12.00
2019-01-20T14:45:47.766Z,13.73
2019-01-20T14:48:16.382Z,11.60
2019-01-20T14:50:44.988Z,12.33
2019-01-20T14:53:13.598Z,16.80
2019-01-20T14:55:42.255Z,16.43
2019-01-20T14:58:10.964Z,13.70
2019-01-20T15:00:39.554Z,16.07
2019-01-20T15:03:08.287Z,15.90
2019-01-20T15:05:36.932Z,20.47
2019-01-20T15:08:06.038Z,18.67
2019-01-20T15:10:34.710Z,20.43
2019-01-20T15:13:03.715Z,28.93
2019-01-20T15:15:33.831Z,26.20
2019-01-20T15:18:02.500Z,14.10
2019-01-20T15:20:31.186Z,11.97
2019-01-20T15:22:59.833Z,11.17
2019-01-20T15:25:28.499Z,13.00
2019-01-20T15:27:57.112Z,41.53
2019-01-20T15:30:26.870Z,14.67
2019-01-20T15:32:55.771Z,11.10
2019-01-20T15:35:24.431Z,12.83
2019-01-20T15:37:53.024Z,13.33
2019-01-20T15:40:21.906Z,14.23
2019-01-20T15:42:50.570Z,16.93
2019-01-20T15:45:19.775Z,13.80
2019-01-20T15:47:48.411Z,12.33
2019-01-20T15:50:21.162Z,11.20
2019-01-20T15:52:49.813Z,13.60
2019-01-20T15:55:18.513Z,17.03
2019-01-20T15:57:47.103Z,14.03
2019-01-20T16:00:17.031Z,21.43
2019-01-20T16:02:45.639Z,20.27
2019-01-20T16:05:14.412Z,13.47
2019-01-20T16:07:43.009Z,18.70
2019-01-20T16:10:12.141Z,17.97
2019-01-20T16:12:40.795Z,18.40
2019-01-20T16:15:11.255Z,15.77
2019-01-20T16:17:39.891Z,13.83
2019-01-20T16:20:08.986Z,14.40
2019-01-20T16:22:37.648Z,14.70
2019-01-20T16:25:09.201Z,17.00
2019-01-20T16:27:38.199Z,17.40
2019-01-20T16:30:07.826Z,14.70
2019-01-20T16:32:36.451Z,13.53
2019-01-20T16:35:05.277Z,12.07
2019-01-20T16:37:33.881Z,13.87
2019-01-20T16:40:02.609Z,11.77
2019-01-20T16:42:31.221Z,16.37
2019-01-20T16:44:59.921Z,16.27
2019-01-20T16:47:28.654Z,15.67
2019-01-20T16:49:57.467Z,18.97
2019-01-20T16:52:26.124Z,17.97
2019-01-20T16:54:54.844Z,15.90
2019-01-20T16:57:23.436Z,24.13
2019-01-20T16:59:52.107Z,12.83
2019-01-20T17:02:20.717Z,14.03
2019-01-20T17:04:49.329Z,13.43
2019-01-20T17:07:18.007Z,11.47
2019-01-20T17:09:46.652Z,22.80
2019-01-20T17:12:15.345Z,21.10
2019-01-20T17:14:44.023Z,15.97
2019-01-20T17:17:12.730Z,15.57
2019-01-20T17:19:41.407Z,21.73
2019-01-20T17:22:10.099Z,22.90
2019-01-20T17:24:38.838Z,22.80
2019-01-20T17:27:07.494Z,14.50
2019-01-20T17:29:36.149Z,16.80
2019-01-20T17:32:04.939Z,16.57
2019-01-20T17:34:33.640Z,14.27
2019-01-20T17:37:02.327Z,16.97
2019-01-20T17:39:31.017Z,15.13
2019-01-20T17:41:59.682Z,18.67
2019-01-20T17:44:28.364Z,26.87
2019-01-20T17:46:57.059Z,18.27
2019-01-20T17:49:27.584Z,17.37
2019-01-20T17:51:56.273Z,16.73
2019-01-20T17:54:24.985Z,17.57
2019-01-20T17:56:53.648Z,15.97
2019-01-20T17:59:22.325Z,18.60
2019-01-20T18:01:51.023Z,17.67
2019-01-20T18:04:19.651Z,16.77
2019-01-20T18:06:48.315Z,17.20
2019-01-20T18:09:17.021Z,14.67
2019-01-20T18:11:45.692Z,17.97
2019-01-20T18:14:14.377Z,18.60
2019-01-20T18:16:43.085Z,19.40
2019-01-20T18:19:11.689Z,19.73
2019-01-20T18:21:40.287Z,16.93
2019-01-20T18:24:08.903Z,18.33
2019-01-20T18:26:37.513Z,16.60
2019-01-20T18:29:06.189Z,18.73
2019-01-20T18:31:34.837Z,19.20
2019-01-20T18:34:03.427Z,21.40
2019-01-20T18:36:32.056Z,18.80
2019-01-20T18:39:00.649Z,18.30
2019-01-20T18:41:29.223Z,18.47
2019-01-20T18:43:57.829Z,20.07
2019-01-20T18:46:26.431Z,18.83
2019-01-20T18:48:55.030Z,18.63
2019-01-20T18:51:23.711Z,16.80
2019-01-20T18:53:52.322Z,18.27
2019-01-20T18:56:20.928Z,20.30
2019-01-20T18:58:49.551Z,17.93
2019-01-20T19:01:18.168Z,19.03
2019-01-20T19:03:46.762Z,17.47
2019-01-20T19:06:15.413Z,18.40
2019-01-20T19:08:44.006Z,17.33
2019-01-20T19:11:12.754Z,19.40
2019-01-20T19:13:41.444Z,18.97
2019-01-20T19:16:10.041Z,17.43
2019-01-20T19:18:38.658Z,19.97
2019-01-20T19:21:07.335Z,19.13
2019-01-20T19:23:35.992Z,19.50
2019-01-20T19:26:04.641Z,18.13
2019-01-20T19:28:33.294Z,21.87
2019-01-20T19:31:01.906Z,23.07
2019-01-20T19:33:30.546Z,21.57
2019-01-20T19:35:59.180Z,26.10
2019-01-20T19:38:27.800Z,24.10
2019-01-20T19:40:56.409Z,21.93
2019-01-20T19:43:25.058Z,19.13
2019-01-20T19:45:53.655Z,23.80
2019-01-20T19:48:22.244Z,25.30
2019-01-20T19:50:50.872Z,33.43
2019-01-20T19:53:19.488Z,25.23
2019-01-20T19:55:48.090Z,22.63
2019-01-20T19:58:16.720Z,21.50
2019-01-20T20:00:45.344Z,21.27
2019-01-20T20:03:13.958Z,20.53
2019-01-20T20:05:42.586Z,18.60
2019-01-20T20:08:11.172Z,22.07
2019-01-20T20:10:39.785Z,20.80
2019-01-20T20:13:08.421Z,21.17
2019-01-20T20:15:37.022Z,24.40
2019-01-20T20:18:05.866Z,22.17
2019-01-20T20:20:34.514Z,19.80
2019-01-20T20:23:03.169Z,22.77
2019-01-20T20:25:31.759Z,22.83
2019-01-20T20:28:00.395Z,19.50
2019-01-20T20:30:30.131Z,19.00
2019-01-20T20:32:58.739Z,18.87
2019-01-20T20:35:27.694Z,21.83
2019-01-20T20:37:56.308Z,21.90
2019-01-20T20:40:24.963Z,19.20
2019-01-20T20:42:53.585Z,19.50
2019-01-20T20:45:22.597Z,20.70
2019-01-20T20:47:51.166Z,19.80
2019-01-20T20:50:19.761Z,18.80
2019-01-20T20:52:48.371Z,17.30
2019-01-20T20:55:17.084Z,18.20
2019-01-20T20:57:45.685Z,17.60
2019-01-20T21:00:18.569Z,17.23
2019-01-20T21:02:47.160Z,19.23
2019-01-20T21:05:15.784Z,18.17
2019-01-20T21:07:44.404Z,22.33
2019-01-20T21:10:13.933Z,16.73
2019-01-20T21:12:42.575Z,20.73
2019-01-20T21:15:12.133Z,19.30
2019-01-20T21:17:47.921Z,18.63
2019-01-20T21:20:12.844Z,19.17
2019-01-20T21:22:41.447Z,20.10
2019-01-20T21:25:10.487Z,19.90
2019-01-20T21:27:39.141Z,21.20
2019-01-20T21:30:09.755Z,19.93
2019-01-20T21:32:38.367Z,19.07
2019-01-20T21:35:07.139Z,18.87
2019-01-20T21:37:36.629Z,20.07
2019-01-20T21:40:05.652Z,21.07
2019-01-20T21:42:34.306Z,20.97
2019-01-20T21:45:02.923Z,20.73
2019-01-20T21:47:31.536Z,18.33
2019-01-20T21:50:00.175Z,20.20
2019-01-20T21:52:28.830Z,21.73
2019-01-20T21:54:57.439Z,22.63
2019-01-20T21:57:26.099Z,22.60
2019-01-20T21:59:54.767Z,23.53
2019-01-20T22:02:23.363Z,23.80
2019-01-20T22:04:51.977Z,21.67
2019-01-20T22:07:20.595Z,21.70
2019-01-20T22:09:49.208Z,20.67
2019-01-20T22:12:17.835Z,20.63
2019-01-20T22:14:46.441Z,20.47
2019-01-20T22:17:15.067Z,22.37
2019-01-20T22:19:43.697Z,22.63
2019-01-20T22:22:12.317Z,19.77
2019-01-20T22:24:40.915Z,18.90
2019-01-20T22:27:09.527Z,21.10
2019-01-20T22:29:38.122Z,20.57
2019-01-20T22:32:06.741Z,21.47
2019-01-20T22:34:35.363Z,22.10
2019-01-20T22:37:03.995Z,20.53
2019-01-20T22:39:32.635Z,21.93
2019-01-20T22:42:01.279Z,20.87
2019-01-20T22:44:29.952Z,21.73
2019-01-20T22:47:00.222Z,20.47
2019-01-20T22:49:28.883Z,22.20
2019-01-20T22:51:57.496Z,23.33
2019-01-20T22:54:26.099Z,21.63
2019-01-20T22:56:54.768Z,20.50
2019-01-20T22:59:23.358Z,22.73
2019-01-20T23:01:51.939Z,21.30
2019-01-20T23:04:20.568Z,21.83
2019-01-20T23:06:49.166Z,22.30
2019-01-20T23:09:17.769Z,21.60
2019-01-20T23:11:46.384Z,22.10
2019-01-20T23:14:14.982Z,21.40
2019-01-20T23:16:43.608Z,21.47
2019-01-20T23:19:12.194Z,23.80
2019-01-20T23:21:40.814Z,22.40
2019-01-20T23:24:09.452Z,22.50
2019-01-20T23:26:38.042Z,22.13
2019-01-20T23:29:06.638Z,23.27
2019-01-20T23:31:35.268Z,24.13
2019-01-20T23:34:04.176Z,22.27
2019-01-20T23:36:32.776Z,23.60
2019-01-20T23:39:01.388Z,22.13
2019-01-20T23:41:30.022Z,23.03
2019-01-20T23:43:58.700Z,21.37
2019-01-20T23:46:27.322Z,22.87
2019-01-20T23:48:55.926Z,22.97
2019-01-20T23:51:24.579Z,22.83
2019-01-20T23:53:53.176Z,21.87
2019-01-20T23:56:21.778Z,26.83
2019-01-20T23:58:50.404Z,22.37
